createdAt,value
2018-04-01T00:01:12.533Z,16.49
2018-04-01T00:03:39.819Z,16.41
2018-04-01T00:06:07.034Z,16.32
2018-04-01T00:08:34.050Z,16.25
2018-04-01T00:11:01.079Z,16.15
2018-04-01T00:13:28.100Z,16.08
2018-04-01T00:15:55.136Z,16.03
2018-04-01T00:18:22.278Z,15.95
2018-04-01T00:20:49.494Z,15.90
2018-04-01T00:23:16.746Z,15.88
2018-04-01T00:25:43.766Z,15.85
2018-04-01T00:28:10.979Z,15.81
2018-04-01T00:30:38.053Z,15.80
2018-04-01T00:33:05.078Z,15.81
2018-04-01T00:35:32.327Z,15.82
2018-04-01T00:37:59.351Z,15.85
2018-04-01T00:40:26.567Z,15.86
2018-04-01T00:42:53.595Z,15.85
2018-04-01T00:45:20.760Z,15.81
2018-04-01T00:47:47.923Z,15.75
2018-04-01T00:50:14.930Z,15.79
2018-04-01T00:52:41.998Z,15.80
2018-04-01T00:55:09.009Z,15.82
2018-04-01T00:57:36.029Z,15.78
2018-04-01T01:00:03.287Z,15.79
2018-04-01T01:02:30.505Z,15.81
2018-04-01T01:04:57.533Z,15.80
2018-04-01T01:07:24.549Z,15.77
2018-04-01T01:09:51.558Z,15.76
2018-04-01T01:12:18.741Z,15.76
2018-04-01T01:14:45.986Z,15.71
2018-04-01T01:17:13.058Z,15.68
2018-04-01T01:19:40.318Z,15.64
2018-04-01T01:22:07.534Z,15.63
2018-04-01T01:24:34.558Z,15.69
2018-04-01T01:27:01.572Z,15.87
2018-04-01T01:29:28.758Z,15.99
2018-04-01T01:31:55.771Z,16.08
2018-04-01T01:34:22.989Z,16.13
2018-04-01T01:36:50.006Z,16.15
2018-04-01T01:39:17.030Z,16.17
2018-04-01T01:41:44.150Z,16.14
2018-04-01T01:44:11.191Z,16.09
2018-04-01T01:46:38.394Z,16.06
2018-04-01T01:49:05.410Z,15.99
2018-04-01T01:51:32.522Z,15.91
2018-04-01T01:53:59.546Z,15.83
2018-04-01T01:56:26.859Z,15.82
2018-04-01T01:58:53.920Z,15.72
2018-04-01T02:01:20.933Z,15.63
2018-04-01T02:03:48.018Z,15.62
2018-04-01T02:06:15.031Z,15.56
2018-04-01T02:08:42.242Z,15.53
2018-04-01T02:11:09.301Z,15.47
2018-04-01T02:13:36.314Z,15.47
2018-04-01T02:16:03.588Z,15.51
2018-04-01T02:18:30.638Z,15.47
2018-04-01T02:20:57.922Z,15.46
2018-04-01T02:23:25.137Z,15.46
2018-04-01T02:25:52.161Z,15.48
2018-04-01T02:28:19.174Z,15.51
2018-04-01T02:30:46.485Z,15.51
2018-04-01T02:33:13.702Z,15.50
2018-04-01T02:35:40.924Z,15.47
2018-04-01T02:38:07.947Z,15.47
2018-04-01T02:40:34.962Z,15.49
2018-04-01T02:43:02.130Z,15.53
2018-04-01T02:45:29.150Z,15.52
2018-04-01T02:47:56.399Z,15.50
2018-04-01T02:50:23.426Z,15.54
2018-04-01T02:52:50.451Z,15.49
2018-04-01T02:55:17.467Z,15.43
2018-04-01T02:57:44.650Z,15.42
2018-04-01T03:00:11.670Z,15.39
2018-04-01T03:02:38.695Z,15.37
2018-04-01T03:05:05.876Z,15.33
2018-04-01T03:07:32.895Z,15.34
2018-04-01T03:09:59.933Z,15.48
2018-04-01T03:12:27.159Z,15.54
2018-04-01T03:14:54.270Z,15.57
2018-04-01T03:17:21.349Z,15.55
2018-04-01T03:19:48.608Z,15.52
2018-04-01T03:22:15.630Z,15.63
2018-04-01T03:24:42.840Z,15.67
2018-04-01T03:27:10.159Z,15.63
2018-04-01T03:29:37.181Z,15.66
2018-04-01T03:32:04.280Z,15.59
2018-04-01T03:34:31.506Z,15.57
2018-04-01T03:36:58.539Z,15.54
2018-04-01T03:39:25.558Z,15.47
2018-04-01T03:41:52.570Z,15.44
2018-04-01T03:44:19.769Z,15.46
2018-04-01T03:46:46.956Z,15.43
2018-04-01T03:49:14.296Z,15.43
2018-04-01T03:51:41.522Z,15.47
2018-04-01T03:54:08.735Z,15.44
2018-04-01T03:56:35.812Z,15.38
2018-04-01T03:59:03.069Z,15.39
2018-04-01T04:01:30.094Z,15.36
2018-04-01T04:03:57.400Z,15.37
2018-04-01T04:06:24.618Z,15.37
2018-04-01T04:08:51.834Z,15.41
2018-04-01T04:11:19.122Z,15.43
2018-04-01T04:13:46.138Z,15.42
2018-04-01T04:16:13.168Z,15.38
2018-04-01T04:18:40.370Z,15.36
2018-04-01T04:21:07.381Z,15.31
2018-04-01T04:23:34.410Z,15.26
2018-04-01T04:26:01.647Z,14.99
2018-04-01T04:28:28.714Z,15.25
2018-04-01T04:30:55.726Z,15.25
2018-04-01T04:33:22.742Z,15.31
2018-04-01T04:35:49.923Z,15.30
2018-04-01T04:38:16.934Z,15.30
2018-04-01T04:40:43.958Z,15.26
2018-04-01T04:43:11.161Z,15.24
2018-04-01T04:45:38.475Z,15.23
2018-04-01T04:48:05.490Z,15.24
2018-04-01T04:50:32.501Z,15.30
2018-04-01T04:52:59.521Z,15.31
2018-04-01T04:55:26.574Z,15.37
2018-04-01T04:57:53.857Z,15.55
2018-04-01T05:00:21.072Z,15.77
2018-04-01T05:02:48.099Z,15.97
2018-04-01T05:05:15.118Z,16.19
2018-04-01T05:07:42.144Z,16.35
2018-04-01T05:10:09.226Z,16.58
2018-04-01T05:12:36.453Z,16.58
2018-04-01T05:15:03.466Z,16.30
2018-04-01T05:17:30.490Z,16.07
2018-04-01T05:19:57.527Z,15.87
2018-04-01T05:22:24.816Z,15.75
2018-04-01T05:24:51.829Z,15.65
2018-04-01T05:27:18.842Z,16.06
2018-04-01T05:29:45.861Z,16.62
2018-04-01T05:32:12.975Z,17.48
2018-04-01T05:34:40.011Z,18.06
2018-04-01T05:37:07.026Z,18.42
2018-04-01T05:39:34.229Z,18.16
2018-04-01T05:42:01.405Z,18.53
2018-04-01T05:44:28.425Z,17.93
2018-04-01T05:46:55.446Z,17.33
2018-04-01T05:49:22.482Z,17.24
2018-04-01T05:51:49.502Z,18.11
2018-04-01T05:54:16.517Z,18.83
2018-04-01T05:56:43.617Z,18.85
2018-04-01T05:59:10.856Z,18.14
2018-04-01T06:01:37.901Z,17.39
2018-04-01T06:04:04.926Z,17.14
2018-04-01T06:06:32.072Z,17.00
2018-04-01T06:08:59.102Z,16.94
2018-04-01T06:11:26.159Z,16.84
2018-04-01T06:13:53.453Z,16.81
2018-04-01T06:16:20.484Z,16.78
2018-04-01T06:18:47.499Z,16.78
2018-04-01T06:21:14.618Z,16.74
2018-04-01T06:23:41.817Z,16.61
2018-04-01T06:26:09.032Z,16.23
2018-04-01T06:28:36.224Z,15.83
2018-04-01T06:31:03.301Z,15.32
2018-04-01T06:33:30.454Z,14.60
2018-04-01T06:35:57.700Z,14.26
2018-04-01T06:38:24.722Z,14.03
2018-04-01T06:40:51.930Z,13.72
2018-04-01T06:43:18.958Z,13.58
2018-04-01T06:45:46.137Z,13.36
2018-04-01T06:48:13.329Z,13.11
2018-04-01T06:50:40.339Z,13.01
2018-04-01T06:53:07.612Z,12.87
2018-04-01T06:55:34.662Z,12.55
2018-04-01T06:58:01.673Z,12.42
2018-04-01T07:00:28.700Z,12.23
2018-04-01T07:02:55.713Z,12.14
2018-04-01T07:05:22.782Z,11.98
2018-04-01T07:07:50.007Z,11.87
2018-04-01T07:10:17.229Z,11.76
2018-04-01T07:12:44.418Z,11.67
2018-04-01T07:15:11.567Z,11.60
2018-04-01T07:17:38.594Z,11.56
2018-04-01T07:20:05.606Z,11.43
2018-04-01T07:22:32.905Z,11.41
2018-04-01T07:25:00.125Z,11.43
2018-04-01T07:27:27.337Z,11.40
2018-04-01T07:29:54.377Z,11.44
2018-04-01T07:32:21.390Z,11.45
2018-04-01T07:34:48.423Z,11.45
2018-04-01T07:37:15.601Z,11.46
2018-04-01T07:39:42.670Z,11.47
2018-04-01T07:42:09.712Z,11.45
2018-04-01T07:44:36.734Z,11.42
2018-04-01T07:47:03.760Z,11.36
2018-04-01T07:49:30.788Z,11.32
2018-04-01T07:51:57.813Z,11.41
2018-04-01T07:54:25.016Z,11.53
2018-04-01T07:56:52.330Z,11.57
2018-04-01T07:59:19.343Z,11.65
2018-04-01T08:01:46.562Z,11.73
2018-04-01T08:04:13.779Z,11.74
2018-04-01T08:06:40.995Z,11.76
2018-04-01T08:09:08.017Z,11.71
2018-04-01T08:11:35.047Z,11.61
2018-04-01T08:14:02.344Z,11.42
2018-04-01T08:16:29.358Z,11.38
2018-04-01T08:18:56.537Z,11.46
2018-04-01T08:21:23.613Z,11.52
2018-04-01T08:23:50.668Z,11.59
2018-04-01T08:26:17.924Z,11.65
2018-04-01T08:28:44.933Z,11.60
2018-04-01T08:31:12.220Z,11.49
2018-04-01T08:33:39.234Z,11.46
2018-04-01T08:36:06.250Z,11.46
2018-04-01T08:38:33.504Z,11.44
2018-04-01T08:41:00.519Z,11.52
2018-04-01T08:43:27.837Z,11.49
2018-04-01T08:45:54.862Z,11.52
2018-04-01T08:48:21.874Z,11.55
2018-04-01T08:50:48.897Z,11.48
2018-04-01T08:53:15.986Z,11.45
2018-04-01T08:55:43.022Z,11.49
2018-04-01T08:58:10.037Z,11.58
2018-04-01T09:00:37.132Z,11.68
2018-04-01T09:03:04.367Z,11.85
2018-04-01T09:05:31.382Z,11.98
2018-04-01T09:07:58.567Z,12.14
2018-04-01T09:10:25.851Z,12.24
2018-04-01T09:12:53.130Z,12.38
2018-04-01T09:15:20.158Z,12.50
2018-04-01T09:17:47.242Z,12.66
2018-04-01T09:20:14.358Z,12.84
2018-04-01T09:22:41.663Z,12.89
2018-04-01T09:25:08.685Z,13.06
2018-04-01T09:27:35.722Z,13.24
2018-04-01T09:30:02.817Z,13.45
2018-04-01T09:32:29.854Z,13.65
2018-04-01T09:34:56.866Z,13.93
2018-04-01T09:37:24.091Z,14.15
2018-04-01T09:39:51.186Z,14.32
2018-04-01T09:42:18.221Z,14.35
2018-04-01T09:44:45.230Z,14.35
2018-04-01T09:47:12.302Z,14.33
2018-04-01T09:49:39.571Z,14.31
2018-04-01T09:52:06.789Z,14.47
2018-04-01T09:54:34.004Z,14.57
2018-04-01T09:57:01.231Z,14.71
2018-04-01T09:59:28.451Z,15.03
2018-04-01T10:02:00.862Z,15.33
2018-04-01T10:04:28.548Z,15.44
2018-04-01T10:06:56.121Z,15.41
2018-04-01T10:09:23.680Z,15.32
2018-04-01T10:11:51.254Z,15.44
2018-04-01T10:14:19.065Z,16.47
2018-04-01T10:16:46.621Z,18.04
2018-04-01T10:19:14.194Z,19.28
2018-04-01T10:21:41.867Z,20.38
2018-04-01T10:24:09.634Z,21.19
2018-04-01T10:26:37.192Z,21.83
2018-04-01T10:29:04.819Z,22.09
2018-04-01T10:31:32.373Z,22.55
2018-04-01T10:33:59.934Z,22.77
2018-04-01T10:36:27.518Z,23.21
2018-04-01T10:38:55.073Z,24.12
2018-04-01T10:41:22.638Z,24.47
2018-04-01T10:43:50.211Z,24.56
2018-04-01T10:46:17.770Z,25.02
2018-04-01T10:48:45.340Z,24.58
2018-04-01T10:51:13.135Z,24.69
2018-04-01T10:53:41.048Z,24.92
2018-04-01T10:56:08.058Z,25.23
2018-04-01T10:58:35.122Z,25.52
2018-04-01T11:01:02.156Z,25.64
2018-04-01T11:03:29.170Z,25.64
2018-04-01T11:05:56.428Z,25.85
2018-04-01T11:08:23.454Z,25.97
2018-04-01T11:10:50.855Z,25.15
2018-04-01T11:13:18.079Z,24.99
2018-04-01T11:15:45.098Z,24.81
2018-04-01T11:18:12.279Z,25.07
2018-04-01T11:20:39.530Z,24.38
2018-04-01T11:23:06.622Z,24.26
2018-04-01T11:25:33.638Z,24.69
2018-04-01T11:28:00.758Z,25.09
2018-04-01T11:30:27.991Z,25.43
2018-04-01T11:32:55.209Z,25.39
2018-04-01T11:35:22.282Z,25.31
2018-04-01T11:37:49.294Z,26.01
2018-04-01T11:40:16.351Z,26.69
2018-04-01T11:42:43.487Z,26.74
2018-04-01T11:45:10.666Z,26.26
2018-04-01T11:47:37.745Z,26.40
2018-04-01T11:50:04.758Z,25.89
2018-04-01T11:52:31.843Z,24.68
2018-04-01T11:54:58.929Z,23.84
2018-04-01T11:57:26.082Z,23.50
2018-04-01T11:59:53.178Z,24.05
2018-04-01T12:02:20.217Z,24.78
2018-04-01T12:04:48.321Z,24.94
2018-04-01T12:07:15.342Z,25.58
2018-04-01T12:09:42.356Z,25.54
2018-04-01T12:12:09.387Z,25.42
2018-04-01T12:14:36.397Z,25.68
2018-04-01T12:17:03.414Z,25.70
2018-04-01T12:19:30.679Z,26.07
2018-04-01T12:21:57.710Z,26.55
2018-04-01T12:24:24.950Z,27.20
2018-04-01T12:26:52.207Z,27.04
2018-04-01T12:29:19.244Z,25.21
2018-04-01T12:31:46.283Z,24.39
2018-04-01T12:34:13.305Z,24.47
2018-04-01T12:36:40.329Z,25.00
2018-04-01T12:39:07.546Z,25.34
2018-04-01T12:41:34.566Z,25.74
2018-04-01T12:44:01.590Z,26.32
2018-04-01T12:46:28.702Z,26.68
2018-04-01T12:48:55.725Z,26.76
2018-04-01T12:51:22.756Z,25.12
2018-04-01T12:53:49.818Z,23.94
2018-04-01T12:56:16.852Z,23.20
2018-04-01T12:58:43.964Z,22.81
2018-04-01T13:01:10.998Z,22.19
2018-04-01T13:03:38.010Z,21.60
2018-04-01T13:06:05.200Z,21.41
2018-04-01T13:08:32.438Z,21.51
2018-04-01T13:10:59.633Z,22.63
2018-04-01T13:13:26.872Z,23.66
2018-04-01T13:15:53.889Z,23.45
2018-04-01T13:18:20.901Z,22.77
2018-04-01T13:20:47.997Z,22.06
2018-04-01T13:23:15.016Z,21.73
2018-04-01T13:25:42.063Z,21.45
2018-04-01T13:28:09.082Z,21.31
2018-04-01T13:30:36.388Z,21.47
2018-04-01T13:33:03.478Z,21.55
2018-04-01T13:35:30.535Z,21.26
2018-04-01T13:37:57.807Z,20.75
2018-04-01T13:40:24.818Z,20.30
2018-04-01T13:42:52.064Z,19.80
2018-04-01T13:45:19.193Z,19.53
2018-04-01T13:47:46.273Z,19.36
2018-04-01T13:50:13.332Z,18.98
2018-04-01T13:52:40.342Z,18.24
2018-04-01T13:55:07.358Z,17.95
2018-04-01T13:57:34.572Z,17.61
2018-04-01T14:00:01.598Z,16.84
2018-04-01T14:02:28.635Z,16.00
2018-04-01T14:04:55.699Z,15.46
2018-04-01T14:07:22.715Z,14.78
2018-04-01T14:09:49.831Z,14.21
2018-04-01T14:12:16.949Z,13.93
2018-04-01T14:14:44.056Z,13.61
2018-04-01T14:17:11.259Z,13.39
2018-04-01T14:19:38.512Z,13.31
2018-04-01T14:22:05.693Z,13.18
2018-04-01T14:24:32.941Z,13.05
2018-04-01T14:26:59.968Z,12.99
2018-04-01T14:29:26.978Z,12.97
2018-04-01T14:31:54.159Z,13.00
2018-04-01T14:34:21.402Z,13.04
2018-04-01T14:36:48.414Z,13.05
2018-04-01T14:39:15.442Z,12.96
2018-04-01T14:41:42.466Z,13.01
2018-04-01T14:44:09.490Z,13.01
2018-04-01T14:46:36.681Z,12.91
2018-04-01T14:49:03.900Z,12.96
2018-04-01T14:51:30.929Z,13.02
2018-04-01T14:53:58.130Z,13.08
2018-04-01T14:56:25.206Z,13.12
2018-04-01T14:58:52.465Z,13.08
2018-04-01T15:01:19.491Z,13.08
2018-04-01T15:03:46.531Z,13.07
2018-04-01T15:06:13.558Z,13.06
2018-04-01T15:08:40.610Z,13.08
2018-04-01T15:11:07.643Z,13.15
2018-04-01T15:13:34.750Z,13.17
2018-04-01T15:16:01.864Z,13.23
2018-04-01T15:18:29.048Z,13.27
2018-04-01T15:20:56.073Z,13.31
2018-04-01T15:23:23.323Z,13.41
2018-04-01T15:25:50.354Z,13.45
2018-04-01T15:28:17.514Z,13.51
2018-04-01T15:30:44.604Z,13.57
2018-04-01T15:33:11.650Z,13.63
2018-04-01T15:35:38.694Z,13.73
2018-04-01T15:38:05.723Z,13.79
2018-04-01T15:40:32.770Z,13.74
2018-04-01T15:43:00.051Z,13.69
2018-04-01T15:45:27.925Z,13.53
2018-04-01T15:47:55.012Z,13.54
2018-04-01T15:50:22.038Z,13.59
2018-04-01T15:52:49.219Z,13.67
2018-04-01T15:55:16.272Z,13.70
2018-04-01T15:57:43.281Z,13.71
2018-04-01T16:00:10.332Z,13.72
2018-04-01T16:02:37.602Z,13.66
2018-04-01T16:05:04.702Z,13.50
2018-04-01T16:07:31.915Z,13.41
2018-04-01T16:09:58.927Z,13.33
2018-04-01T16:12:25.954Z,13.28
2018-04-01T16:14:52.973Z,13.21
2018-04-01T16:17:19.997Z,13.19
2018-04-01T16:19:47.024Z,13.19
2018-04-01T16:22:14.208Z,13.17
2018-04-01T16:24:41.225Z,13.15
2018-04-01T16:27:08.275Z,13.13
2018-04-01T16:29:35.302Z,13.08
2018-04-01T16:32:02.323Z,13.03
2018-04-01T16:34:29.358Z,12.96
2018-04-01T16:36:56.499Z,12.86
2018-04-01T16:39:23.802Z,12.65
2018-04-01T16:41:50.829Z,12.59
2018-04-01T16:44:17.851Z,12.52
2018-04-01T16:46:45.172Z,12.55
2018-04-01T16:49:12.189Z,12.54
2018-04-01T16:51:39.504Z,12.60
2018-04-01T16:54:06.602Z,12.66
2018-04-01T16:56:33.678Z,12.63
2018-04-01T16:59:00.703Z,12.56
2018-04-01T17:01:27.717Z,12.53
2018-04-01T17:03:54.984Z,12.40
2018-04-01T17:06:21.998Z,12.32
2018-04-01T17:08:49.216Z,12.28
2018-04-01T17:11:16.410Z,12.24
2018-04-01T17:13:43.628Z,12.15
2018-04-01T17:16:10.658Z,12.09
2018-04-01T17:18:37.881Z,11.96
2018-04-01T17:21:05.099Z,11.82
2018-04-01T17:23:32.118Z,11.70
2018-04-01T17:25:59.148Z,11.64
2018-04-01T17:28:26.226Z,11.56
2018-04-01T17:30:53.279Z,11.50
2018-04-01T17:33:20.290Z,11.45
2018-04-01T17:35:47.599Z,11.45
2018-04-01T17:38:14.690Z,11.48
2018-04-01T17:40:41.701Z,11.51
2018-04-01T17:43:08.732Z,11.50
2018-04-01T17:45:35.959Z,11.50
2018-04-01T17:48:03.013Z,11.55
2018-04-01T17:50:30.294Z,11.54
2018-04-01T17:52:57.374Z,11.52
2018-04-01T17:55:24.401Z,11.58
2018-04-01T17:57:51.438Z,11.59
2018-04-01T18:00:18.480Z,11.56
2018-04-01T18:02:45.502Z,11.51
2018-04-01T18:05:12.649Z,11.45
2018-04-01T18:07:39.680Z,11.33
2018-04-01T18:10:06.919Z,11.27
2018-04-01T18:12:33.944Z,11.23
2018-04-01T18:15:01.018Z,11.18
2018-04-01T18:17:28.230Z,11.19
2018-04-01T18:19:55.420Z,11.15
2018-04-01T18:22:22.482Z,11.12
2018-04-01T18:24:49.716Z,11.14
2018-04-01T18:27:16.822Z,11.13
2018-04-01T18:29:43.841Z,11.14
2018-04-01T18:32:10.941Z,11.17
2018-04-01T18:34:37.964Z,11.12
2018-04-01T18:37:05.079Z,11.09
2018-04-01T18:39:32.313Z,11.10
2018-04-01T18:41:59.340Z,11.09
2018-04-01T18:44:26.443Z,11.06
2018-04-01T18:46:53.661Z,11.06
2018-04-01T18:49:20.845Z,11.06
2018-04-01T18:51:47.874Z,11.00
2018-04-01T18:54:15.110Z,10.94
2018-04-01T18:56:42.320Z,10.98
2018-04-01T18:59:09.434Z,10.95
2018-04-01T19:01:36.506Z,10.93
2018-04-01T19:04:03.776Z,10.89
2018-04-01T19:06:30.795Z,10.88
2018-04-01T19:08:57.974Z,10.87
2018-04-01T19:11:24.994Z,10.88
2018-04-01T19:13:52.055Z,10.83
2018-04-01T19:16:19.859Z,10.84
2018-04-01T19:18:47.468Z,10.83
2018-04-01T19:21:15.158Z,10.81
2018-04-01T19:23:42.875Z,10.76
2018-04-01T19:26:10.631Z,10.70
2018-04-01T19:28:38.342Z,10.69
2018-04-01T19:31:05.915Z,10.63
2018-04-01T19:33:33.475Z,10.65
2018-04-01T19:36:01.087Z,10.59
2018-04-01T19:38:28.654Z,10.54
2018-04-01T19:40:56.440Z,10.52
2018-04-01T19:43:24.133Z,10.51
2018-04-01T19:45:51.868Z,10.47
2018-04-01T19:48:19.484Z,10.47
2018-04-01T19:50:47.077Z,10.48
2018-04-01T19:53:14.689Z,10.48
2018-04-01T19:55:42.449Z,10.45
2018-04-01T19:58:10.265Z,10.45
2018-04-01T20:00:38.084Z,10.39
2018-04-01T20:03:05.802Z,10.41
2018-04-01T20:05:33.621Z,10.40
2018-04-01T20:08:01.330Z,10.34
2018-04-01T20:10:28.973Z,10.33
2018-04-01T20:12:56.526Z,10.26
2018-04-01T20:15:24.293Z,10.28
2018-04-01T20:17:52.111Z,10.26
2018-04-01T20:20:19.688Z,10.26
2018-04-01T20:22:47.258Z,10.22
2018-04-01T20:25:15.074Z,10.23
2018-04-01T20:27:42.689Z,10.25
2018-04-01T20:30:10.607Z,10.24
2018-04-01T20:32:38.211Z,10.22
2018-04-01T20:35:05.806Z,10.22
2018-04-01T20:37:33.476Z,10.23
2018-04-01T20:40:01.280Z,10.21
2018-04-01T20:42:29.093Z,10.18
2018-04-01T20:44:56.803Z,10.21
2018-04-01T20:47:24.538Z,10.25
2018-04-01T20:49:52.096Z,10.21
2018-04-01T20:52:19.658Z,10.15
2018-04-01T20:54:47.226Z,10.19
2018-04-01T20:57:14.800Z,10.20
2018-04-01T20:59:42.357Z,10.16
2018-04-01T21:02:09.970Z,10.12
2018-04-01T21:04:37.530Z,10.13
2018-04-01T21:07:05.120Z,10.14
2018-04-01T21:09:32.690Z,10.14
2018-04-01T21:12:00.472Z,10.17
2018-04-01T21:14:28.116Z,10.12
2018-04-01T21:16:55.670Z,10.13
2018-04-01T21:19:23.463Z,10.15
2018-04-01T21:21:51.041Z,10.12
2018-04-01T21:24:18.798Z,10.15
2018-04-01T21:26:46.367Z,10.17
2018-04-01T21:29:14.135Z,10.18
2018-04-01T21:31:41.699Z,10.16
2018-04-01T21:34:09.260Z,10.12
2018-04-01T21:36:36.874Z,10.13
2018-04-01T21:39:04.496Z,10.13
2018-04-01T21:41:32.225Z,10.08
2018-04-01T21:43:59.796Z,10.02
2018-04-01T21:46:27.528Z,10.00
2018-04-01T21:48:55.100Z,10.01
2018-04-01T21:51:22.655Z,10.01
2018-04-01T21:53:50.270Z,10.01
2018-04-01T21:56:18.002Z,9.96
2018-04-01T21:58:45.549Z,10.02
2018-04-01T22:01:13.368Z,9.99
2018-04-01T22:03:40.950Z,9.98
2018-04-01T22:06:08.705Z,9.98
2018-04-01T22:08:36.421Z,9.98
2018-04-01T22:11:04.030Z,9.94
2018-04-01T22:13:31.735Z,9.90
2018-04-01T22:15:59.454Z,9.92
2018-04-01T22:18:27.164Z,9.91
2018-04-01T22:20:54.710Z,9.85
2018-04-01T22:23:22.338Z,9.85
2018-04-01T22:25:50.153Z,9.84
2018-04-01T22:28:17.759Z,9.81
2018-04-01T22:30:45.362Z,9.78
2018-04-01T22:33:12.920Z,9.78
2018-04-01T22:35:40.480Z,9.80
2018-04-01T22:38:08.040Z,9.78
2018-04-01T22:40:35.602Z,9.75
2018-04-01T22:43:03.373Z,9.72
2018-04-01T22:45:30.978Z,9.69
2018-04-01T22:47:58.810Z,9.69
2018-04-01T22:50:26.363Z,9.70
2018-04-01T22:52:53.937Z,9.73
2018-04-01T22:55:21.664Z,9.70
2018-04-01T22:57:49.221Z,9.70
2018-04-01T23:00:16.774Z,9.68
2018-04-01T23:02:44.386Z,9.65
2018-04-01T23:05:11.938Z,9.68
2018-04-01T23:07:39.522Z,9.61
2018-04-01T23:10:07.098Z,9.67
2018-04-01T23:12:34.650Z,9.70
2018-04-01T23:15:02.505Z,9.72
2018-04-01T23:17:30.225Z,9.68
2018-04-01T23:19:57.943Z,9.67
2018-04-01T23:22:25.653Z,9.61
2018-04-01T23:24:53.379Z,9.61
2018-04-01T23:27:20.983Z,9.60
2018-04-01T23:29:48.526Z,9.55
2018-04-01T23:32:16.082Z,9.54
2018-04-01T23:34:43.820Z,9.55
2018-04-01T23:37:11.371Z,9.51
2018-04-01T23:39:38.979Z,9.48
2018-04-01T23:42:06.535Z,9.47
2018-04-01T23:44:34.094Z,9.45
2018-04-01T23:47:01.840Z,9.41
2018-04-01T23:49:29.394Z,9.40
2018-04-01T23:51:57.177Z,9.45
2018-04-01T23:54:24.734Z,9.40
2018-04-01T23:56:52.513Z,9.32
2018-04-01T23:59:20.231Z,9.28
